sensor_id;sensor_type;location;lat;lon;timestamp;P1;durP1;ratioP1;P2;durP2;ratioP2
70201;SDS011;57724;52.164;5.408;2022-09-29T19:05:17;13.52;;;7.05;;
70201;SDS011;57724;52.164;5.408;2022-09-29T19:07:52;17.38;;;7.20;;
70201;SDS011;57724;52.164;5.408;2022-09-29T19:10:20;16.52;;;7.38;;
70201;SDS011;57724;52.164;5.408;2022-09-29T19:12:50;15.27;;;7.40;;
70201;SDS011;57724;52.164;5.408;2022-09-29T19:15:23;17.15;;;9.02;;
70201;SDS011;57724;52.164;5.408;2022-09-29T19:17:51;16.75;;;7.63;;
70201;SDS011;57724;52.164;5.408;2022-09-29T19:20:22;15.43;;;7.78;;
70201;SDS011;57724;52.164;5.408;2022-09-29T19:22:51;14.88;;;7.25;;
70201;SDS011;57724;52.164;5.408;2022-09-29T19:25:21;16.02;;;7.38;;
70201;SDS011;57724;52.164;5.408;2022-09-29T19:27:50;21.67;;;12.20;;
70201;SDS011;57724;52.164;5.408;2022-09-29T19:30:19;36.13;;;20.50;;
70201;SDS011;57724;52.164;5.408;2022-09-29T19:32:47;20.30;;;8.95;;
70201;SDS011;57724;52.164;5.408;2022-09-29T19:35:15;18.42;;;8.75;;
70201;SDS011;57724;52.164;5.408;2022-09-29T19:37:44;14.00;;;7.53;;
70201;SDS011;57724;52.164;5.408;2022-09-29T19:40:13;15.85;;;8.23;;
70201;SDS011;57724;52.164;5.408;2022-09-29T19:42:42;14.85;;;7.93;;
70201;SDS011;57724;52.164;5.408;2022-09-29T19:45:18;15.95;;;8.35;;
70201;SDS011;57724;52.164;5.408;2022-09-29T19:47:45;19.45;;;8.75;;
70201;SDS011;57724;52.164;5.408;2022-09-29T19:50:12;18.67;;;9.57;;
70201;SDS011;57724;52.164;5.408;2022-09-29T19:52:57;19.25;;;9.68;;
70201;SDS011;57724;52.164;5.408;2022-09-29T19:55:24;18.83;;;9.13;;
70201;SDS011;57724;52.164;5.408;2022-09-29T19:57:52;18.48;;;9.63;;
70201;SDS011;57724;52.164;5.408;2022-09-29T20:00:19;20.30;;;10.20;;
70201;SDS011;57724;52.164;5.408;2022-09-29T20:02:47;19.95;;;9.77;;
70201;SDS011;57724;52.164;5.408;2022-09-29T20:05:14;24.88;;;10.80;;
70201;SDS011;57724;52.164;5.408;2022-09-29T20:07:41;22.83;;;11.35;;
70201;SDS011;57724;52.164;5.408;2022-09-29T20:10:13;21.83;;;10.88;;
70201;SDS011;57724;52.164;5.408;2022-09-29T20:12:41;23.27;;;12.20;;
70201;SDS011;57724;52.164;5.408;2022-09-29T20:15:08;23.33;;;11.93;;
70201;SDS011;57724;52.164;5.408;2022-09-29T20:17:37;23.55;;;11.02;;
70201;SDS011;57724;52.164;5.408;2022-09-29T20:20:06;20.83;;;10.85;;
70201;SDS011;57724;52.164;5.408;2022-09-29T20:22:34;20.45;;;10.30;;
70201;SDS011;57724;52.164;5.408;2022-09-29T20:25:02;21.77;;;11.40;;
70201;SDS011;57724;52.164;5.408;2022-09-29T20:27:30;19.00;;;11.13;;
70201;SDS011;57724;52.164;5.408;2022-09-29T20:29:57;18.88;;;10.23;;
70201;SDS011;57724;52.164;5.408;2022-09-29T20:32:24;17.80;;;9.85;;
70201;SDS011;57724;52.164;5.408;2022-09-29T20:34:51;23.75;;;11.50;;
70201;SDS011;57724;52.164;5.408;2022-09-29T20:37:18;20.02;;;12.18;;
70201;SDS011;57724;52.164;5.408;2022-09-29T20:39:44;19.67;;;11.95;;
70201;SDS011;57724;52.164;5.408;2022-09-29T20:42:15;23.10;;;11.93;;
70201;SDS011;57724;52.164;5.408;2022-09-29T20:44:42;23.58;;;12.02;;
70201;SDS011;57724;52.164;5.408;2022-09-29T20:47:09;22.45;;;11.50;;
70201;SDS011;57724;52.164;5.408;2022-09-29T20:49:36;26.05;;;12.00;;
70201;SDS011;57724;52.164;5.408;2022-09-29T20:52:04;26.10;;;12.02;;
70201;SDS011;57724;52.164;5.408;2022-09-29T20:54:31;25.67;;;13.00;;
70201;SDS011;57724;52.164;5.408;2022-09-29T20:56:58;24.40;;;12.55;;
70201;SDS011;57724;52.164;5.408;2022-09-29T20:59:25;24.80;;;11.55;;
70201;SDS011;57724;52.164;5.408;2022-09-29T21:01:52;23.77;;;12.15;;
70201;SDS011;57724;52.164;5.408;2022-09-29T21:04:20;24.10;;;12.88;;
70201;SDS011;57724;52.164;5.408;2022-09-29T21:06:48;26.23;;;13.70;;
70201;SDS011;57724;52.164;5.408;2022-09-29T21:09:18;25.85;;;11.52;;
70201;SDS011;57724;52.164;5.408;2022-09-29T21:11:47;20.75;;;11.15;;
70201;SDS011;57724;52.164;5.408;2022-09-29T21:14:24;21.73;;;12.32;;
70201;SDS011;57724;52.164;5.408;2022-09-29T21:16:54;23.05;;;12.65;;
70201;SDS011;57724;52.164;5.408;2022-09-29T21:19:21;26.98;;;13.57;;
70201;SDS011;57724;52.164;5.408;2022-09-29T21:21:52;25.40;;;13.82;;
70201;SDS011;57724;52.164;5.408;2022-09-29T21:24:20;26.25;;;13.38;;
70201;SDS011;57724;52.164;5.408;2022-09-29T21:26:47;57.30;;;31.15;;
70201;SDS011;57724;52.164;5.408;2022-09-29T21:29:15;26.25;;;14.65;;
70201;SDS011;57724;52.164;5.408;2022-09-29T21:31:43;26.10;;;14.50;;
70201;SDS011;57724;52.164;5.408;2022-09-29T21:34:14;32.80;;;19.88;;
70201;SDS011;57724;52.164;5.408;2022-09-29T21:36:40;30.10;;;17.70;;
70201;SDS011;57724;52.164;5.408;2022-09-29T21:39:08;35.75;;;19.15;;
70201;SDS011;57724;52.164;5.408;2022-09-29T21:41:35;33.00;;;17.42;;
70201;SDS011;57724;52.164;5.408;2022-09-29T21:44:05;30.38;;;17.58;;
70201;SDS011;57724;52.164;5.408;2022-09-29T21:46:36;31.45;;;18.67;;
70201;SDS011;57724;52.164;5.408;2022-09-29T21:49:04;32.13;;;18.85;;
70201;SDS011;57724;52.164;5.408;2022-09-29T21:51:36;36.72;;;18.92;;
70201;SDS011;57724;52.164;5.408;2022-09-29T21:54:05;33.65;;;19.02;;
70201;SDS011;57724;52.164;5.408;2022-09-29T21:56:36;33.15;;;19.15;;
70201;SDS011;57724;52.164;5.408;2022-09-29T21:59:06;30.60;;;17.95;;
70201;SDS011;57724;52.164;5.408;2022-09-29T22:01:33;31.60;;;18.65;;
70201;SDS011;57724;52.164;5.408;2022-09-29T22:04:00;31.63;;;18.00;;
70201;SDS011;57724;52.164;5.408;2022-09-29T22:06:28;31.20;;;18.08;;
70201;SDS011;57724;52.164;5.408;2022-09-29T22:08:57;27.35;;;17.10;;
70201;SDS011;57724;52.164;5.408;2022-09-29T22:11:29;30.70;;;17.60;;
70201;SDS011;57724;52.164;5.408;2022-09-29T22:13:58;29.13;;;16.55;;
70201;SDS011;57724;52.164;5.408;2022-09-29T22:16:29;30.55;;;17.60;;
70201;SDS011;57724;52.164;5.408;2022-09-29T22:18:58;26.88;;;16.52;;
70201;SDS011;57724;52.164;5.408;2022-09-29T22:21:45;28.50;;;17.13;;
70201;SDS011;57724;52.164;5.408;2022-09-29T22:24:12;30.13;;;17.50;;
70201;SDS011;57724;52.164;5.408;2022-09-29T22:26:39;27.65;;;17.05;;
70201;SDS011;57724;52.164;5.408;2022-09-29T22:29:06;28.48;;;17.63;;
70201;SDS011;57724;52.164;5.408;2022-09-29T22:31:33;29.00;;;16.38;;
70201;SDS011;57724;52.164;5.408;2022-09-29T22:34:01;30.35;;;16.92;;
70201;SDS011;57724;52.164;5.408;2022-09-29T22:36:31;30.77;;;16.55;;
70201;SDS011;57724;52.164;5.408;2022-09-29T22:38:59;27.77;;;16.75;;
70201;SDS011;57724;52.164;5.408;2022-09-29T22:41:27;22.83;;;12.70;;
70201;SDS011;57724;52.164;5.408;2022-09-29T22:43:54;26.38;;;14.98;;
70201;SDS011;57724;52.164;5.408;2022-09-29T22:46:24;25.77;;;13.73;;
70201;SDS011;57724;52.164;5.408;2022-09-29T22:48:53;26.48;;;14.15;;
70201;SDS011;57724;52.164;5.408;2022-09-29T22:51:20;22.80;;;13.20;;
70201;SDS011;57724;52.164;5.408;2022-09-29T22:53:47;21.75;;;12.80;;
70201;SDS011;57724;52.164;5.408;2022-09-29T22:56:15;21.58;;;13.68;;
70201;SDS011;57724;52.164;5.408;2022-09-29T23:01:11;24.98;;;14.18;;
70201;SDS011;57724;52.164;5.408;2022-09-29T23:03:40;20.10;;;12.43;;
70201;SDS011;57724;52.164;5.408;2022-09-29T23:06:08;21.50;;;11.63;;
70201;SDS011;57724;52.164;5.408;2022-09-29T23:08:36;20.25;;;11.93;;
70201;SDS011;57724;52.164;5.408;2022-09-29T23:11:03;23.33;;;13.30;;
70201;SDS011;57724;52.164;5.408;2022-09-29T23:13:34;22.40;;;12.82;;
70201;SDS011;57724;52.164;5.408;2022-09-29T23:16:06;22.67;;;12.57;;
70201;SDS011;57724;52.164;5.408;2022-09-29T23:18:38;23.85;;;13.38;;
70201;SDS011;57724;52.164;5.408;2022-09-29T23:21:14;24.83;;;13.57;;
70201;SDS011;57724;52.164;5.408;2022-09-29T23:23:46;23.38;;;12.77;;
70201;SDS011;57724;52.164;5.408;2022-09-29T23:26:16;25.67;;;12.65;;
70201;SDS011;57724;52.164;5.408;2022-09-29T23:28:43;21.48;;;11.32;;
70201;SDS011;57724;52.164;5.408;2022-09-29T23:31:10;19.33;;;10.35;;
70201;SDS011;57724;52.164;5.408;2022-09-29T23:33:38;21.38;;;10.48;;
70201;SDS011;57724;52.164;5.408;2022-09-29T23:36:08;20.00;;;11.30;;
70201;SDS011;57724;52.164;5.408;2022-09-29T23:38:37;19.55;;;10.68;;
70201;SDS011;57724;52.164;5.408;2022-09-29T23:41:24;18.88;;;10.30;;
70201;SDS011;57724;52.164;5.408;2022-09-29T23:43:56;18.42;;;9.93;;
70201;SDS011;57724;52.164;5.408;2022-09-29T23:48:53;17.45;;;9.60;;
70201;SDS011;57724;52.164;5.408;2022-09-29T23:51:22;19.42;;;10.52;;
70201;SDS011;57724;52.164;5.408;2022-09-29T23:53:49;20.23;;;10.23;;
70201;SDS011;57724;52.164;5.408;2022-09-29T23:56:16;18.55;;;9.93;;
70201;SDS011;57724;52.164;5.408;2022-09-29T23:58:43;20.83;;;8.90;;
